createdAt,value
2018-12-02T00:01:38.836Z,3.13
2018-12-02T00:04:10.596Z,2.74
2018-12-02T00:06:37.868Z,3.11
2018-12-02T00:09:06.206Z,3.12
2018-12-02T00:11:33.457Z,3.09
2018-12-02T00:14:00.639Z,3.04
2018-12-02T00:16:27.851Z,3.05
2018-12-02T00:18:55.090Z,3.08
2018-12-02T00:21:22.266Z,3.09
2018-12-02T00:23:49.563Z,3.02
2018-12-02T00:26:16.716Z,3.04
2018-12-02T00:28:43.970Z,3.03
2018-12-02T00:31:11.176Z,2.98
2018-12-02T00:33:38.400Z,2.98
2018-12-02T00:36:06.207Z,2.91
2018-12-02T00:38:33.367Z,3.04
2018-12-02T00:41:00.594Z,2.98
2018-12-02T00:43:27.781Z,2.96
2018-12-02T00:45:54.978Z,3.01
2018-12-02T00:48:22.288Z,3.08
2018-12-02T00:50:49.451Z,3.00
2018-12-02T00:53:16.727Z,3.07
2018-12-02T00:55:43.951Z,3.00
2018-12-02T00:58:11.158Z,3.01
2018-12-02T01:00:38.388Z,3.02
2018-12-02T01:03:08.343Z,3.03
2018-12-02T01:05:35.554Z,3.03
2018-12-02T01:08:02.809Z,3.08
2018-12-02T01:10:30.056Z,3.07
2018-12-02T01:12:58.162Z,3.06
2018-12-02T01:15:27.461Z,3.00
2018-12-02T01:17:54.690Z,3.04
2018-12-02T01:20:22.498Z,3.01
2018-12-02T01:22:49.738Z,3.02
2018-12-02T01:25:17.003Z,3.00
2018-12-02T01:27:44.919Z,2.98
2018-12-02T01:30:20.843Z,3.07
2018-12-02T01:32:48.218Z,3.06
2018-12-02T01:35:16.390Z,3.06
2018-12-02T01:37:43.685Z,3.03
2018-12-02T01:40:12.015Z,3.03
2018-12-02T01:42:39.226Z,3.01
2018-12-02T01:45:12.489Z,3.03
2018-12-02T01:47:39.688Z,3.02
2018-12-02T01:50:10.459Z,3.06
2018-12-02T01:52:37.697Z,3.04
2018-12-02T01:55:05.622Z,2.96
2018-12-02T01:57:32.785Z,2.99
2018-12-02T02:00:00.009Z,2.98
2018-12-02T02:02:27.195Z,3.00
2018-12-02T02:04:54.372Z,3.01
2018-12-02T02:07:21.558Z,2.93
2018-12-02T02:09:48.769Z,3.06
2018-12-02T02:12:15.944Z,3.04
2018-12-02T02:14:43.131Z,2.99
2018-12-02T02:17:10.362Z,3.00
2018-12-02T02:19:37.562Z,2.98
2018-12-02T02:22:04.899Z,2.93
2018-12-02T02:24:32.087Z,3.04
2018-12-02T02:26:59.379Z,2.95
2018-12-02T02:29:26.600Z,3.03
2018-12-02T02:31:53.838Z,3.05
2018-12-02T02:34:21.074Z,2.98
2018-12-02T02:36:48.284Z,2.99
2018-12-02T02:39:15.506Z,3.01
2018-12-02T02:41:42.714Z,2.94
2018-12-02T02:44:09.914Z,2.93
2018-12-02T02:46:37.135Z,2.93
2018-12-02T02:49:04.590Z,2.92
2018-12-02T02:51:31.810Z,2.92
2018-12-02T02:53:59.006Z,2.99
2018-12-02T02:56:26.261Z,2.91
2018-12-02T02:58:53.438Z,2.86
2018-12-02T03:01:20.667Z,2.96
2018-12-02T03:03:47.872Z,2.85
2018-12-02T03:06:15.125Z,2.88
2018-12-02T03:08:42.283Z,2.88
2018-12-02T03:11:09.444Z,2.92
2018-12-02T03:13:36.649Z,2.88
2018-12-02T03:16:03.891Z,2.98
2018-12-02T03:18:31.058Z,2.98
2018-12-02T03:20:58.187Z,2.94
2018-12-02T03:23:25.366Z,2.88
2018-12-02T03:25:52.589Z,2.82
2018-12-02T03:28:19.798Z,2.80
2018-12-02T03:30:46.945Z,2.90
2018-12-02T03:33:14.129Z,3.03
2018-12-02T03:35:41.340Z,3.02
2018-12-02T03:38:08.539Z,2.99
2018-12-02T03:40:35.883Z,3.02
2018-12-02T03:43:03.132Z,3.01
2018-12-02T03:45:30.305Z,3.03
2018-12-02T03:47:58.040Z,2.89
2018-12-02T03:50:25.239Z,2.98
2018-12-02T03:52:52.505Z,2.93
2018-12-02T03:55:19.750Z,2.96
2018-12-02T03:57:47.002Z,3.03
2018-12-02T04:00:21.833Z,3.05
2018-12-02T04:02:49.546Z,2.96
2018-12-02T04:05:17.842Z,3.00
2018-12-02T04:07:45.083Z,2.93
2018-12-02T04:10:13.190Z,2.86
2018-12-02T04:12:40.407Z,2.96
2018-12-02T04:15:12.501Z,2.77
2018-12-02T04:17:39.882Z,2.73
2018-12-02T04:20:09.110Z,2.71
2018-12-02T04:22:36.398Z,2.79
2018-12-02T04:25:04.691Z,2.89
2018-12-02T04:27:31.894Z,2.93
2018-12-02T04:29:59.150Z,3.01
2018-12-02T04:32:26.452Z,2.93
2018-12-02T04:34:53.710Z,2.85
2018-12-02T04:37:20.925Z,2.88
2018-12-02T04:39:48.278Z,2.80
2018-12-02T04:42:15.476Z,2.85
2018-12-02T04:44:42.703Z,2.87
2018-12-02T04:47:09.902Z,2.86
2018-12-02T04:49:37.108Z,2.87
2018-12-02T04:52:04.503Z,2.87
2018-12-02T04:54:31.718Z,2.77
2018-12-02T04:56:58.949Z,2.84
2018-12-02T04:59:26.163Z,2.83
2018-12-02T05:01:53.379Z,2.79
2018-12-02T05:04:20.582Z,2.88
2018-12-02T05:06:47.779Z,2.82
2018-12-02T05:09:14.915Z,2.84
2018-12-02T05:11:42.155Z,2.85
2018-12-02T05:14:09.362Z,2.86
2018-12-02T05:16:36.581Z,2.63
2018-12-02T05:19:03.838Z,2.64
2018-12-02T05:21:31.106Z,2.69
2018-12-02T05:23:58.278Z,2.67
2018-12-02T05:26:25.463Z,2.72
2018-12-02T05:28:52.652Z,2.70
2018-12-02T05:31:19.817Z,2.72
2018-12-02T05:33:47.073Z,2.73
2018-12-02T05:36:14.274Z,2.64
2018-12-02T05:38:41.552Z,2.76
2018-12-02T05:41:08.767Z,2.78
2018-12-02T05:43:35.976Z,2.83
2018-12-02T05:46:03.203Z,2.80
2018-12-02T05:48:30.500Z,2.91
2018-12-02T05:50:57.712Z,2.94
2018-12-02T05:53:24.916Z,2.97
2018-12-02T05:55:52.130Z,2.99
2018-12-02T05:58:19.354Z,3.10
2018-12-02T06:00:46.553Z,3.09
2018-12-02T06:03:13.718Z,3.13
2018-12-02T06:05:40.870Z,3.15
2018-12-02T06:08:08.053Z,3.14
2018-12-02T06:10:35.196Z,3.21
2018-12-02T06:13:02.375Z,3.21
2018-12-02T06:15:29.626Z,3.16
2018-12-02T06:17:56.845Z,3.12
2018-12-02T06:20:25.313Z,3.22
2018-12-02T06:22:54.183Z,3.15
2018-12-02T06:25:21.423Z,3.16
2018-12-02T06:27:48.616Z,3.18
2018-12-02T06:30:17.162Z,3.23
2018-12-02T06:32:44.936Z,3.24
2018-12-02T06:35:13.100Z,3.21
2018-12-02T06:37:40.305Z,3.20
2018-12-02T06:40:16.681Z,3.13
2018-12-02T06:42:43.884Z,3.19
2018-12-02T06:45:11.755Z,3.14
2018-12-02T06:47:39.803Z,3.17
2018-12-02T06:50:22.822Z,3.17
2018-12-02T06:52:50.205Z,3.16
2018-12-02T06:55:41.016Z,3.21
2018-12-02T06:58:20.583Z,3.20
2018-12-02T07:00:58.687Z,3.24
2018-12-02T07:03:37.318Z,3.22
2018-12-02T07:06:05.138Z,3.25
2018-12-02T07:08:32.459Z,3.29
2018-12-02T07:10:59.602Z,3.28
2018-12-02T07:13:26.817Z,3.33
2018-12-02T07:15:53.988Z,3.30
2018-12-02T07:18:25.712Z,3.30
2018-12-02T07:20:58.587Z,3.36
2018-12-02T07:23:28.141Z,3.39
2018-12-02T07:25:58.576Z,3.41
2018-12-02T07:28:25.762Z,3.38
2018-12-02T07:30:52.951Z,3.42
2018-12-02T07:33:20.196Z,3.44
2018-12-02T07:35:47.474Z,3.50
2018-12-02T07:38:21.975Z,3.51
2018-12-02T07:40:49.285Z,3.51
2018-12-02T07:43:16.555Z,3.50
2018-12-02T07:45:43.795Z,3.50
2018-12-02T07:48:11.003Z,3.52
2018-12-02T07:50:38.216Z,3.46
2018-12-02T07:53:05.457Z,3.47
2018-12-02T07:55:32.673Z,3.45
2018-12-02T07:57:59.876Z,3.50
2018-12-02T08:00:27.127Z,3.50
2018-12-02T08:02:54.603Z,3.45
2018-12-02T08:05:21.866Z,3.51
2018-12-02T08:07:50.030Z,3.50
2018-12-02T08:10:17.926Z,3.59
2018-12-02T08:12:45.258Z,3.58
2018-12-02T08:15:14.565Z,3.55
2018-12-02T08:17:41.804Z,3.53
2018-12-02T08:20:11.988Z,3.55
2018-12-02T08:22:39.254Z,3.56
2018-12-02T08:25:14.969Z,3.55
2018-12-02T08:27:42.233Z,3.58
2018-12-02T08:30:13.863Z,3.52
2018-12-02T08:32:41.051Z,3.58
2018-12-02T08:35:09.351Z,3.58
2018-12-02T08:37:36.587Z,3.58
2018-12-02T08:40:06.352Z,3.60
2018-12-02T08:42:33.592Z,3.70
2018-12-02T08:45:00.802Z,3.69
2018-12-02T08:47:28.007Z,3.67
2018-12-02T08:49:55.297Z,3.67
2018-12-02T08:52:22.455Z,3.74
2018-12-02T08:54:49.681Z,3.72
2018-12-02T08:57:16.867Z,3.74
2018-12-02T08:59:44.099Z,3.72
2018-12-02T09:02:11.320Z,3.71
2018-12-02T09:04:38.533Z,3.75
2018-12-02T09:07:06.186Z,3.71
2018-12-02T09:09:34.103Z,3.66
2018-12-02T09:12:01.380Z,3.70
2018-12-02T09:14:30.601Z,3.69
2018-12-02T09:16:57.931Z,3.69
2018-12-02T09:19:25.232Z,3.67
2018-12-02T09:21:52.465Z,3.70
2018-12-02T09:24:19.741Z,3.72
2018-12-02T09:26:47.049Z,3.67
2018-12-02T09:29:14.485Z,3.79
2018-12-02T09:31:41.642Z,3.80
2018-12-02T09:34:08.831Z,3.77
2018-12-02T09:36:36.163Z,3.75
2018-12-02T09:39:05.658Z,3.74
2018-12-02T09:41:32.993Z,3.73
2018-12-02T09:44:02.713Z,3.75
2018-12-02T09:46:31.163Z,3.74
2018-12-02T09:48:58.411Z,3.74
2018-12-02T09:51:25.663Z,3.76
2018-12-02T09:53:52.928Z,3.78
2018-12-02T09:56:20.195Z,3.85
2018-12-02T09:58:47.398Z,3.83
2018-12-02T10:01:14.688Z,3.85
2018-12-02T10:03:41.907Z,3.89
2018-12-02T10:06:09.108Z,3.93
2018-12-02T10:08:36.283Z,3.96
2018-12-02T10:11:03.539Z,4.00
2018-12-02T10:13:31.066Z,3.97
2018-12-02T10:15:58.208Z,4.02
2018-12-02T10:18:25.371Z,4.04
2018-12-02T10:20:52.626Z,4.08
2018-12-02T10:23:19.835Z,4.06
2018-12-02T10:25:47.058Z,4.09
2018-12-02T10:28:14.300Z,4.12
2018-12-02T10:30:41.587Z,4.14
2018-12-02T10:33:08.973Z,4.19
2018-12-02T10:35:36.242Z,4.21
2018-12-02T10:38:03.577Z,4.21
2018-12-02T10:40:31.146Z,4.25
2018-12-02T10:42:58.355Z,4.30
2018-12-02T10:45:26.539Z,4.34
2018-12-02T10:47:54.767Z,4.39
2018-12-02T10:50:23.374Z,4.43
2018-12-02T10:52:51.543Z,4.48
2018-12-02T10:55:23.721Z,4.49
2018-12-02T10:57:50.947Z,4.49
2018-12-02T11:01:26.424Z,4.54
2018-12-02T11:03:53.683Z,4.53
2018-12-02T11:06:20.931Z,4.55
2018-12-02T11:08:48.110Z,4.60
2018-12-02T11:11:15.314Z,4.61
2018-12-02T11:13:42.540Z,4.62
2018-12-02T11:16:09.716Z,4.71
2018-12-02T11:18:36.926Z,4.70
2018-12-02T11:21:04.262Z,4.77
2018-12-02T11:23:31.421Z,4.82
2018-12-02T11:25:58.656Z,4.77
2018-12-02T11:28:25.887Z,4.86
2018-12-02T11:30:53.110Z,4.81
2018-12-02T11:33:20.331Z,4.83
2018-12-02T11:35:47.551Z,4.87
2018-12-02T11:38:14.779Z,4.92
2018-12-02T11:40:42.114Z,4.86
2018-12-02T11:43:09.618Z,4.94
2018-12-02T11:45:36.946Z,4.99
2018-12-02T11:48:04.378Z,4.99
2018-12-02T11:50:31.540Z,5.03
2018-12-02T11:52:58.735Z,5.04
2018-12-02T11:55:25.944Z,5.13
2018-12-02T11:57:53.215Z,5.08
2018-12-02T12:00:27.647Z,5.06
2018-12-02T12:02:56.677Z,5.12
2018-12-02T12:05:23.918Z,5.09
2018-12-02T12:07:51.179Z,5.11
2018-12-02T12:10:19.428Z,5.13
2018-12-02T12:12:47.500Z,5.12
2018-12-02T12:15:18.808Z,5.13
2018-12-02T12:17:46.143Z,5.11
2018-12-02T12:20:47.345Z,5.11
2018-12-02T12:23:16.326Z,5.10
2018-12-02T12:25:43.527Z,5.01
2018-12-02T12:28:10.760Z,4.89
2018-12-02T12:30:38.075Z,4.83
2018-12-02T12:33:06.407Z,4.86
2018-12-02T12:35:33.972Z,4.97
2018-12-02T12:38:01.208Z,4.98
2018-12-02T12:40:30.550Z,4.99
2018-12-02T12:43:06.558Z,5.15
2018-12-02T12:45:33.746Z,5.09
2018-12-02T12:48:00.993Z,5.18
2018-12-02T12:50:28.290Z,5.19
2018-12-02T12:52:55.503Z,5.13
2018-12-02T12:55:22.690Z,5.21
2018-12-02T12:57:50.194Z,5.26
2018-12-02T13:00:21.651Z,5.33
2018-12-02T13:02:48.857Z,5.34
2018-12-02T13:05:18.259Z,5.37
2018-12-02T13:07:45.635Z,5.39
2018-12-02T13:10:13.845Z,5.35
2018-12-02T13:12:41.108Z,5.41
2018-12-02T13:15:12.312Z,5.50
2018-12-02T13:17:39.917Z,5.51
2018-12-02T13:20:13.354Z,5.57
2018-12-02T13:22:40.650Z,5.58
2018-12-02T13:25:09.469Z,5.57
2018-12-02T13:27:36.753Z,5.60
2018-12-02T13:30:12.165Z,5.50
2018-12-02T13:32:39.331Z,5.50
2018-12-02T13:35:07.123Z,5.57
2018-12-02T13:37:34.333Z,5.64
2018-12-02T13:40:01.545Z,5.64
2018-12-02T13:42:28.771Z,5.68
2018-12-02T13:44:55.998Z,5.66
2018-12-02T13:47:23.231Z,5.74
2018-12-02T13:49:50.396Z,5.66
2018-12-02T13:52:17.583Z,5.56
2018-12-02T13:54:44.805Z,5.68
2018-12-02T13:57:12.005Z,5.60
2018-12-02T13:59:39.216Z,5.64
2018-12-02T14:02:06.462Z,5.63
2018-12-02T14:04:33.974Z,5.73
2018-12-02T14:07:01.230Z,5.77
2018-12-02T14:09:29.262Z,5.77
2018-12-02T14:11:56.458Z,5.77
2018-12-02T14:14:23.779Z,5.81
2018-12-02T14:16:57.304Z,5.86
2018-12-02T14:19:24.490Z,5.83
2018-12-02T14:21:51.704Z,5.81
2018-12-02T14:24:18.848Z,5.86
2018-12-02T14:26:46.064Z,5.86
2018-12-02T14:29:23.591Z,5.84
2018-12-02T14:31:55.570Z,5.86
2018-12-02T14:34:22.750Z,5.82
2018-12-02T14:36:49.965Z,5.92
2018-12-02T14:39:17.152Z,5.83
2018-12-02T14:41:44.327Z,5.77
2018-12-02T14:44:11.499Z,5.95
2018-12-02T14:46:39.659Z,5.88
2018-12-02T14:49:06.862Z,5.91
2018-12-02T14:51:34.088Z,5.84
2018-12-02T14:54:01.283Z,5.92
2018-12-02T14:56:28.788Z,6.01
2018-12-02T14:58:56.024Z,5.96
2018-12-02T15:01:23.187Z,6.00
2018-12-02T15:03:50.371Z,6.03
2018-12-02T15:06:17.578Z,6.03
2018-12-02T15:08:44.811Z,6.02
2018-12-02T15:11:12.108Z,6.01
2018-12-02T15:13:39.303Z,5.97
2018-12-02T15:16:06.602Z,6.03
2018-12-02T15:18:33.864Z,6.05
2018-12-02T15:21:01.114Z,6.00
2018-12-02T15:23:28.367Z,5.85
2018-12-02T15:25:55.582Z,5.89
2018-12-02T15:28:22.801Z,5.80
2018-12-02T15:30:50.049Z,5.84
2018-12-02T15:33:17.256Z,5.69
2018-12-02T15:35:44.496Z,5.73
2018-12-02T15:38:11.684Z,5.91
2018-12-02T15:40:38.878Z,5.99
2018-12-02T15:43:06.171Z,5.95
2018-12-02T15:45:33.396Z,5.96
2018-12-02T15:48:00.600Z,5.98
2018-12-02T15:50:27.826Z,5.86
2018-12-02T15:52:55.031Z,5.82
2018-12-02T15:55:25.776Z,5.75
2018-12-02T15:57:53.072Z,5.79
2018-12-02T16:00:24.831Z,5.85
2018-12-02T16:02:52.068Z,5.78
2018-12-02T16:05:19.285Z,5.76
2018-12-02T16:07:46.478Z,5.84
2018-12-02T16:10:13.895Z,5.73
2018-12-02T16:12:42.492Z,5.83
2018-12-02T16:15:11.186Z,5.77
2018-12-02T16:17:38.343Z,5.73
2018-12-02T16:20:10.503Z,5.64
2018-12-02T16:22:37.692Z,5.68
2018-12-02T16:25:06.320Z,5.66
2018-12-02T16:27:33.496Z,5.66
2018-12-02T16:30:00.729Z,5.62
2018-12-02T16:32:27.960Z,5.76
2018-12-02T16:34:55.162Z,5.85
2018-12-02T16:37:22.396Z,5.97
2018-12-02T16:39:49.616Z,6.04
2018-12-02T16:42:16.816Z,6.07
2018-12-02T16:44:44.000Z,6.09
2018-12-02T16:47:11.178Z,6.14
2018-12-02T16:49:38.389Z,6.13
2018-12-02T16:52:05.916Z,6.16
2018-12-02T16:54:33.160Z,6.04
2018-12-02T16:57:01.795Z,5.95
2018-12-02T16:59:31.070Z,5.88
2018-12-02T17:02:05.169Z,5.81
2018-12-02T17:04:27.919Z,5.72
2018-12-02T17:06:55.154Z,5.67
2018-12-02T17:09:22.773Z,5.66
2018-12-02T17:11:49.998Z,5.63
2018-12-02T17:14:17.158Z,5.63
2018-12-02T17:16:44.389Z,5.62
2018-12-02T17:19:11.615Z,5.62
2018-12-02T17:21:38.815Z,5.63
2018-12-02T17:24:07.620Z,5.60
2018-12-02T17:26:34.901Z,5.61
2018-12-02T17:29:02.288Z,5.67
2018-12-02T17:31:40.447Z,5.67
2018-12-02T17:34:07.679Z,5.63
2018-12-02T17:36:34.923Z,5.64
2018-12-02T17:39:07.730Z,5.66
2018-12-02T17:41:34.935Z,5.71
2018-12-02T17:44:02.166Z,5.74
2018-12-02T17:46:29.373Z,5.83
2018-12-02T17:48:56.571Z,5.78
2018-12-02T17:51:23.790Z,5.81
2018-12-02T17:53:51.255Z,5.82
2018-12-02T17:56:18.454Z,5.93
2018-12-02T17:58:45.659Z,6.23
2018-12-02T18:01:12.870Z,6.96
2018-12-02T18:03:40.066Z,7.85
2018-12-02T18:06:08.522Z,8.14
2018-12-02T18:08:35.717Z,8.35
2018-12-02T18:11:02.958Z,8.46
2018-12-02T18:13:30.136Z,8.57
2018-12-02T18:15:57.469Z,8.56
2018-12-02T18:18:24.683Z,8.69
2018-12-02T18:20:51.895Z,8.79
2018-12-02T18:23:19.088Z,8.84
2018-12-02T18:25:46.290Z,8.90
2018-12-02T18:28:13.525Z,8.85
2018-12-02T18:30:47.342Z,8.84
2018-12-02T18:33:15.426Z,8.76
2018-12-02T18:35:46.452Z,8.95
2018-12-02T18:38:15.451Z,9.07
2018-12-02T18:40:45.151Z,9.14
2018-12-02T18:43:12.334Z,9.13
2018-12-02T18:45:39.572Z,9.07
2018-12-02T18:48:06.842Z,9.17
2018-12-02T18:50:34.283Z,9.19
2018-12-02T18:53:01.573Z,9.21
2018-12-02T18:55:29.041Z,9.24
2018-12-02T18:57:56.701Z,9.26
2018-12-02T19:00:29.597Z,9.28
2018-12-02T19:02:57.689Z,9.28
2018-12-02T19:05:25.237Z,9.29
2018-12-02T19:07:52.700Z,9.32
2018-12-02T19:10:21.626Z,9.33
2018-12-02T19:12:49.193Z,9.33
2018-12-02T19:15:16.430Z,9.38
2018-12-02T19:17:44.374Z,9.41
2018-12-02T19:20:15.785Z,9.39
2018-12-02T19:22:43.566Z,9.40
2018-12-02T19:25:12.877Z,9.36
2018-12-02T19:27:40.331Z,9.39
2018-12-02T19:30:09.802Z,9.40
2018-12-02T19:32:37.081Z,9.37
2018-12-02T19:35:07.965Z,9.40
2018-12-02T19:37:35.513Z,9.44
2018-12-02T19:40:03.141Z,9.43
2018-12-02T19:42:30.678Z,9.44
2018-12-02T19:44:57.974Z,9.48
2018-12-02T19:47:25.379Z,9.53
2018-12-02T19:49:52.681Z,9.52
2018-12-02T19:52:19.987Z,9.51
2018-12-02T19:54:47.264Z,9.54
2018-12-02T19:57:14.524Z,9.56
2018-12-02T19:59:41.761Z,9.55
2018-12-02T20:02:09.070Z,9.56
2018-12-02T20:04:36.431Z,9.55
2018-12-02T20:07:04.067Z,9.54
2018-12-02T20:09:31.336Z,9.58
2018-12-02T20:11:58.606Z,9.55
2018-12-02T20:14:26.642Z,9.53
2018-12-02T20:16:53.980Z,9.45
2018-12-02T20:19:26.919Z,9.45
2018-12-02T20:21:54.205Z,9.41
2018-12-02T20:24:27.231Z,9.45
2018-12-02T20:26:54.500Z,9.53
2018-12-02T20:29:21.732Z,9.63
2018-12-02T20:31:48.978Z,9.60
2018-12-02T20:34:16.370Z,9.53
2018-12-02T20:36:43.610Z,9.50
2018-12-02T20:39:11.112Z,9.52
2018-12-02T20:41:38.665Z,9.62
2018-12-02T20:44:05.982Z,9.64
2018-12-02T20:46:33.200Z,9.65
2018-12-02T20:49:00.480Z,9.69
2018-12-02T20:51:27.675Z,9.72
2018-12-02T20:53:54.878Z,9.69
2018-12-02T20:56:22.114Z,9.69
2018-12-02T20:58:49.347Z,9.69
2018-12-02T21:01:16.576Z,9.72
2018-12-02T21:03:45.711Z,9.69
2018-12-02T21:06:15.827Z,9.76
2018-12-02T21:08:43.016Z,9.73
2018-12-02T21:11:10.280Z,9.72
2018-12-02T21:13:37.510Z,9.75
2018-12-02T21:16:05.449Z,9.75
2018-12-02T21:18:32.699Z,9.67
2018-12-02T21:20:59.878Z,9.66
2018-12-02T21:23:27.072Z,9.64
2018-12-02T21:25:54.243Z,9.79
2018-12-02T21:28:23.588Z,9.67
2018-12-02T21:30:50.795Z,9.68
2018-12-02T21:33:17.998Z,9.48
2018-12-02T21:35:45.567Z,9.44
2018-12-02T21:38:12.849Z,9.54
2018-12-02T21:40:40.141Z,9.59
2018-12-02T21:43:07.334Z,9.55
2018-12-02T21:45:34.538Z,9.62
2018-12-02T21:48:02.306Z,9.59
2018-12-02T21:50:30.727Z,9.58
2018-12-02T21:52:59.011Z,9.47
2018-12-02T21:55:26.273Z,9.52
2018-12-02T21:57:53.506Z,9.32
2018-12-02T22:00:26.306Z,9.19
2018-12-02T22:02:53.799Z,9.42
2018-12-02T22:05:21.028Z,9.53
2018-12-02T22:07:49.091Z,9.59
2018-12-02T22:10:26.334Z,9.60
2018-12-02T22:12:53.512Z,9.58
2018-12-02T22:15:20.702Z,9.57
2018-12-02T22:17:47.926Z,9.56
2018-12-02T22:20:16.005Z,9.62
2018-12-02T22:22:43.225Z,9.62
2018-12-02T22:25:13.630Z,9.67
2018-12-02T22:27:41.835Z,9.61
2018-12-02T22:30:11.114Z,9.65
2018-12-02T22:32:38.297Z,9.65
2018-12-02T22:35:08.438Z,9.65
2018-12-02T22:37:35.630Z,9.55
2018-12-02T22:40:03.846Z,9.44
2018-12-02T22:42:31.074Z,9.38
2018-12-02T22:44:58.258Z,9.23
2018-12-02T22:47:25.482Z,9.17
2018-12-02T22:49:52.682Z,9.03
2018-12-02T22:52:19.877Z,9.05
2018-12-02T22:54:47.198Z,9.11
2018-12-02T22:57:14.345Z,9.21
2018-12-02T22:59:41.559Z,9.07
2018-12-02T23:02:14.402Z,9.03
2018-12-02T23:04:41.640Z,9.11
2018-12-02T23:07:08.904Z,9.22
2018-12-02T23:09:36.130Z,9.21
2018-12-02T23:12:03.425Z,9.35
2018-12-02T23:14:30.693Z,9.31
2018-12-02T23:17:09.297Z,9.38
2018-12-02T23:19:36.490Z,9.44
2018-12-02T23:22:03.677Z,9.48
2018-12-02T23:24:30.855Z,9.55
2018-12-02T23:26:58.086Z,9.56
2018-12-02T23:29:25.260Z,9.58
2018-12-02T23:31:52.451Z,9.65
2018-12-02T23:34:19.763Z,9.69
2018-12-02T23:36:47.014Z,9.71
2018-12-02T23:39:14.215Z,9.70
2018-12-02T23:41:41.479Z,9.72
2018-12-02T23:44:08.721Z,9.11
2018-12-02T23:46:35.936Z,9.64
2018-12-02T23:49:03.124Z,9.70
2018-12-02T23:51:30.350Z,9.71
2018-12-02T23:53:57.619Z,9.67
2018-12-02T23:56:24.861Z,9.69
2018-12-02T23:58:52.025Z,9.61
